createdAt,value
2022-11-04T00:01:30.435Z,11.80
2022-11-04T00:03:03.147Z,11.70
2022-11-04T00:04:35.882Z,11.70
2022-11-04T00:06:10.198Z,11.70
2022-11-04T00:08:00.253Z,11.70
2022-11-04T00:09:32.938Z,11.70
2022-11-04T00:11:23.356Z,11.70
2022-11-04T00:12:55.102Z,11.70
2022-11-04T00:14:29.599Z,11.70
2022-11-04T00:16:20.049Z,11.70
2022-11-04T00:17:51.790Z,11.70
2022-11-04T00:19:25.005Z,11.70
2022-11-04T00:21:15.359Z,11.70
2022-11-04T00:23:07.615Z,11.70
2022-11-04T00:24:58.517Z,11.60
2022-11-04T00:26:48.870Z,11.70
2022-11-04T00:28:39.382Z,11.70
2022-11-04T00:30:12.426Z,11.60
2022-11-04T00:32:02.677Z,11.60
2022-11-04T00:33:34.417Z,11.60
2022-11-04T00:35:07.837Z,11.60
2022-11-04T00:36:40.531Z,11.60
2022-11-04T00:38:13.625Z,11.60
2022-11-04T00:39:46.449Z,11.60
2022-11-04T00:41:29.701Z,11.60
2022-11-04T00:43:02.390Z,11.60
2022-11-04T00:44:35.137Z,11.60
2022-11-04T00:46:07.846Z,11.60
2022-11-04T00:47:40.700Z,11.60
2022-11-04T00:49:13.843Z,11.60
2022-11-04T00:50:46.564Z,11.60
2022-11-04T00:52:19.301Z,11.60
2022-11-04T00:53:54.034Z,11.50
2022-11-04T00:55:26.842Z,11.60
2022-11-04T00:56:59.552Z,11.50
2022-11-04T00:58:32.414Z,11.50
2022-11-04T01:00:05.954Z,11.50
2022-11-04T01:01:37.849Z,11.50
2022-11-04T01:03:11.023Z,11.50
2022-11-04T01:04:43.010Z,11.50
2022-11-04T01:06:15.793Z,11.50
2022-11-04T01:07:48.529Z,11.60
2022-11-04T01:09:22.730Z,11.50
2022-11-04T01:10:55.464Z,11.40
2022-11-04T01:12:28.161Z,11.40
2022-11-04T01:14:00.946Z,11.40
2022-11-04T01:15:33.650Z,11.40
2022-11-04T01:17:05.402Z,11.40
2022-11-04T01:18:38.603Z,11.30
2022-11-04T01:20:13.269Z,11.30
2022-11-04T01:21:46.000Z,11.30
2022-11-04T01:23:17.736Z,11.20
2022-11-04T01:24:51.809Z,11.20
2022-11-04T01:26:26.481Z,11.20
2022-11-04T01:27:59.219Z,11.20
2022-11-04T01:29:31.931Z,11.20
2022-11-04T01:31:07.322Z,11.20
2022-11-04T01:32:40.052Z,11.20
2022-11-04T01:34:12.784Z,11.10
2022-11-04T01:35:45.501Z,11.10
2022-11-04T01:37:18.216Z,11.10
2022-11-04T01:38:51.169Z,11.10
2022-11-04T01:40:25.221Z,11.10
2022-11-04T01:41:57.990Z,11.10
2022-11-04T01:43:46.298Z,11.00
2022-11-04T01:45:20.937Z,11.00
2022-11-04T01:46:54.699Z,11.00
2022-11-04T01:48:30.958Z,10.90
2022-11-04T01:50:09.441Z,10.90
2022-11-04T01:51:44.403Z,10.90
2022-11-04T01:53:23.835Z,10.90
2022-11-04T01:55:00.536Z,10.90
2022-11-04T01:56:34.889Z,10.90
2022-11-04T01:58:11.710Z,10.90
2022-11-04T01:59:44.676Z,10.90
2022-11-04T02:01:17.622Z,10.80
2022-11-04T02:02:59.979Z,10.80
2022-11-04T02:04:32.117Z,10.80
2022-11-04T02:06:06.871Z,10.80
2022-11-04T02:07:39.637Z,10.80
2022-11-04T02:09:13.676Z,10.80
2022-11-04T02:10:52.463Z,10.80
2022-11-04T02:12:46.490Z,10.80
2022-11-04T02:14:18.299Z,10.80
2022-11-04T02:15:58.339Z,10.80
2022-11-04T02:18:10.820Z,10.70
2022-11-04T02:20:08.261Z,10.70
2022-11-04T02:22:05.044Z,10.70
2022-11-04T02:24:01.815Z,10.70
2022-11-04T02:26:06.068Z,10.70
2022-11-04T02:27:56.083Z,10.70
2022-11-04T02:30:05.128Z,10.70
2022-11-04T02:31:46.834Z,10.60
2022-11-04T02:33:22.734Z,10.60
2022-11-04T02:35:02.915Z,10.60
2022-11-04T02:36:44.594Z,10.60
2022-11-04T02:38:26.033Z,10.60
2022-11-04T02:40:13.618Z,10.60
2022-11-04T02:41:54.493Z,10.60
2022-11-04T02:43:38.245Z,10.60
2022-11-04T02:45:18.025Z,10.60
2022-11-04T02:46:53.901Z,10.60
2022-11-04T02:48:33.190Z,10.60
2022-11-04T02:50:12.837Z,10.60
2022-11-04T02:51:50.960Z,10.60
2022-11-04T02:53:30.231Z,10.60
2022-11-04T02:55:07.379Z,10.60
2022-11-04T02:56:45.409Z,10.60
2022-11-04T02:58:24.558Z,10.60
2022-11-04T02:59:59.932Z,10.50
2022-11-04T03:01:37.808Z,10.50
2022-11-04T03:03:14.150Z,10.50
2022-11-04T03:04:50.267Z,10.50
2022-11-04T03:06:26.467Z,10.50
2022-11-04T03:08:02.938Z,10.50
2022-11-04T03:09:37.741Z,10.50
2022-11-04T03:11:14.752Z,10.40
2022-11-04T03:12:52.241Z,10.40
2022-11-04T03:14:31.601Z,10.40
2022-11-04T03:16:09.095Z,10.40
2022-11-04T03:17:50.308Z,10.40
2022-11-04T03:19:30.795Z,10.40
2022-11-04T03:21:06.022Z,10.40
2022-11-04T03:22:39.607Z,10.40
2022-11-04T03:24:12.454Z,10.40
2022-11-04T03:25:46.542Z,10.40
2022-11-04T03:27:26.102Z,10.30
2022-11-04T03:29:10.313Z,10.40
2022-11-04T03:30:46.243Z,10.40
2022-11-04T03:32:24.337Z,10.40
2022-11-04T03:33:58.829Z,10.30
2022-11-04T03:35:31.289Z,10.40
2022-11-04T03:37:04.510Z,10.30
2022-11-04T03:38:37.064Z,10.30
2022-11-04T03:40:11.418Z,10.30
2022-11-04T03:41:50.193Z,10.30
2022-11-04T03:43:25.602Z,10.30
2022-11-04T03:44:58.040Z,10.30
2022-11-04T03:46:31.023Z,10.30
2022-11-04T03:48:03.444Z,10.30
2022-11-04T03:49:37.549Z,10.30
2022-11-04T03:51:10.610Z,10.20
2022-11-04T03:52:43.318Z,10.20
2022-11-04T03:54:16.718Z,10.30
2022-11-04T03:56:05.022Z,10.20
2022-11-04T03:57:50.698Z,10.20
2022-11-04T03:59:41.077Z,10.20
2022-11-04T04:01:24.735Z,10.20
2022-11-04T04:03:03.692Z,10.20
2022-11-04T04:04:40.122Z,10.20
2022-11-04T04:06:19.231Z,10.20
2022-11-04T04:07:59.931Z,10.20
2022-11-04T04:09:38.104Z,10.20
2022-11-04T04:11:18.068Z,10.20
2022-11-04T04:12:50.209Z,10.20
2022-11-04T04:14:42.041Z,10.20
2022-11-04T04:16:20.065Z,10.20
2022-11-04T04:17:56.356Z,10.20
2022-11-04T04:19:29.717Z,10.20
2022-11-04T04:21:08.284Z,10.20
2022-11-04T04:22:44.113Z,10.20
2022-11-04T04:24:38.855Z,10.10
2022-11-04T04:26:30.508Z,10.20
2022-11-04T04:28:05.171Z,10.20
2022-11-04T04:29:37.850Z,10.10
2022-11-04T04:31:13.268Z,10.10
2022-11-04T04:32:49.158Z,10.10
2022-11-04T04:34:23.530Z,10.10
2022-11-04T04:35:57.924Z,10.10
2022-11-04T04:37:32.105Z,10.10
2022-11-04T04:39:25.135Z,10.10
2022-11-04T04:41:22.330Z,10.10
2022-11-04T04:43:12.746Z,10.00
2022-11-04T04:45:01.080Z,10.10
2022-11-04T04:46:34.501Z,10.00
2022-11-04T04:48:09.470Z,10.10
2022-11-04T04:49:50.076Z,10.00
2022-11-04T04:51:23.486Z,10.10
2022-11-04T04:52:59.557Z,10.00
2022-11-04T04:54:31.378Z,10.00
2022-11-04T04:56:04.120Z,10.00
2022-11-04T04:57:36.850Z,10.10
2022-11-04T04:59:09.560Z,10.00
2022-11-04T05:00:42.339Z,10.00
2022-11-04T05:02:14.291Z,10.00
2022-11-04T05:03:47.076Z,10.00
2022-11-04T05:05:20.255Z,10.00
2022-11-04T05:06:52.233Z,10.00
2022-11-04T05:08:26.304Z,10.00
2022-11-04T05:09:59.052Z,10.00
2022-11-04T05:11:31.858Z,10.00
2022-11-04T05:13:22.294Z,10.00
2022-11-04T05:14:55.010Z,10.00
2022-11-04T05:16:27.727Z,10.00
2022-11-04T05:18:00.750Z,10.00
2022-11-04T05:19:33.719Z,9.90
2022-11-04T05:21:07.291Z,10.00
2022-11-04T05:22:40.038Z,9.90
2022-11-04T05:24:14.215Z,9.90
2022-11-04T05:25:47.022Z,9.90
2022-11-04T05:27:19.737Z,9.90
2022-11-04T05:28:52.451Z,9.90
2022-11-04T05:30:24.209Z,9.90
2022-11-04T05:31:57.707Z,9.90
2022-11-04T05:33:30.407Z,9.90
2022-11-04T05:35:03.140Z,9.90
2022-11-04T05:36:35.853Z,9.90
2022-11-04T05:38:08.632Z,9.90
2022-11-04T05:39:42.676Z,9.90
2022-11-04T05:41:25.539Z,9.90
2022-11-04T05:43:00.194Z,9.90
2022-11-04T05:44:32.914Z,9.90
2022-11-04T05:46:05.818Z,9.90
2022-11-04T05:47:37.625Z,9.90
2022-11-04T05:49:10.799Z,9.90
2022-11-04T05:50:42.535Z,9.90
2022-11-04T05:52:15.261Z,9.90
2022-11-04T05:53:47.998Z,9.90
2022-11-04T05:55:22.065Z,9.90
2022-11-04T05:56:54.908Z,9.90
2022-11-04T05:58:27.599Z,9.90
2022-11-04T06:00:00.314Z,9.90
2022-11-04T06:01:34.544Z,9.80
2022-11-04T06:03:10.663Z,9.90
2022-11-04T06:04:46.374Z,9.80
2022-11-04T06:06:19.294Z,9.80
2022-11-04T06:07:52.023Z,9.80
2022-11-04T06:09:38.749Z,9.80
2022-11-04T06:11:13.301Z,9.80
2022-11-04T06:12:46.032Z,9.70
2022-11-04T06:14:19.075Z,9.70
2022-11-04T06:15:50.881Z,9.70
2022-11-04T06:17:23.720Z,9.80
2022-11-04T06:19:01.154Z,9.70
2022-11-04T06:20:38.492Z,9.70
2022-11-04T06:22:12.816Z,9.80
2022-11-04T06:23:45.812Z,9.80
2022-11-04T06:25:18.522Z,9.80
2022-11-04T06:26:52.714Z,9.80
2022-11-04T06:28:25.469Z,9.70
2022-11-04T06:29:58.198Z,9.70
2022-11-04T06:31:30.940Z,9.80
2022-11-04T06:33:03.671Z,9.70
2022-11-04T06:34:36.385Z,9.70
2022-11-04T06:36:11.574Z,9.80
2022-11-04T06:37:44.287Z,9.80
2022-11-04T06:39:17.136Z,9.80
2022-11-04T06:40:49.890Z,9.80
2022-11-04T06:42:25.844Z,9.80
2022-11-04T06:43:58.561Z,9.80
2022-11-04T06:45:30.298Z,9.80
2022-11-04T06:47:03.001Z,9.80
2022-11-04T06:48:35.764Z,9.80
2022-11-04T06:50:09.221Z,9.80
2022-11-04T06:51:42.505Z,9.90
2022-11-04T06:53:15.509Z,9.90
2022-11-04T06:54:48.472Z,9.80
2022-11-04T06:56:21.206Z,9.90
2022-11-04T06:57:55.241Z,9.90
2022-11-04T06:59:27.949Z,9.90
2022-11-04T07:01:01.093Z,9.90
2022-11-04T07:02:34.295Z,9.90
2022-11-04T07:04:07.334Z,9.90
2022-11-04T07:05:40.543Z,9.90
2022-11-04T07:07:13.829Z,9.90
2022-11-04T07:08:46.823Z,9.90
2022-11-04T07:10:19.976Z,9.90
2022-11-04T07:11:52.934Z,9.90
2022-11-04T07:13:27.889Z,9.90
2022-11-04T07:15:01.239Z,9.90
2022-11-04T07:16:34.089Z,10.00
2022-11-04T07:18:08.127Z,9.90
2022-11-04T07:19:41.223Z,10.00
2022-11-04T07:21:14.290Z,10.00
2022-11-04T07:22:47.193Z,9.90
2022-11-04T07:24:20.038Z,9.90
2022-11-04T07:25:54.212Z,10.00
2022-11-04T07:27:27.259Z,10.00
2022-11-04T07:29:01.933Z,9.90
2022-11-04T07:30:34.646Z,10.00
2022-11-04T07:32:07.908Z,9.90
2022-11-04T07:33:40.934Z,9.90
2022-11-04T07:35:13.792Z,9.90
2022-11-04T07:36:46.636Z,9.90
2022-11-04T07:38:19.377Z,9.90
2022-11-04T07:39:52.139Z,9.90
2022-11-04T07:41:24.954Z,10.00
2022-11-04T07:42:57.675Z,10.00
2022-11-04T07:44:31.730Z,10.00
2022-11-04T07:46:06.587Z,10.00
2022-11-04T07:47:39.299Z,10.00
2022-11-04T07:49:12.096Z,10.00
2022-11-04T07:50:44.800Z,10.00
2022-11-04T07:52:17.596Z,10.00
2022-11-04T07:53:51.097Z,10.00
2022-11-04T07:55:23.984Z,10.00
2022-11-04T07:56:56.739Z,10.10
2022-11-04T07:58:31.226Z,10.10
2022-11-04T08:00:07.039Z,10.00
2022-11-04T08:01:39.994Z,10.00
2022-11-04T08:03:13.234Z,10.10
2022-11-04T08:04:46.270Z,10.10
2022-11-04T08:06:21.218Z,10.10
2022-11-04T08:07:54.005Z,10.10
2022-11-04T08:09:26.941Z,10.10
2022-11-04T08:11:02.182Z,10.20
2022-11-04T08:12:34.861Z,10.10
2022-11-04T08:14:07.657Z,10.10
2022-11-04T08:15:41.774Z,10.20
2022-11-04T08:17:14.475Z,10.20
2022-11-04T08:18:48.300Z,10.20
2022-11-04T08:20:21.012Z,10.30
2022-11-04T08:21:53.742Z,10.30
2022-11-04T08:23:26.618Z,10.40
2022-11-04T08:24:59.360Z,10.40
2022-11-04T08:26:32.577Z,10.40
2022-11-04T08:28:05.713Z,10.50
2022-11-04T08:29:38.460Z,10.50
2022-11-04T08:31:15.950Z,10.50
2022-11-04T08:32:48.670Z,10.60
2022-11-04T08:34:21.413Z,10.70
2022-11-04T08:39:55.474Z,10.80
2022-11-04T08:41:30.839Z,10.80
2022-11-04T08:43:13.771Z,10.80
2022-11-04T08:44:46.652Z,10.80
2022-11-04T08:46:20.974Z,10.80
2022-11-04T08:47:53.863Z,10.80
2022-11-04T08:49:27.001Z,10.80
2022-11-04T08:51:00.082Z,10.80
2022-11-04T08:52:32.810Z,10.80
2022-11-04T08:54:06.350Z,10.80
2022-11-04T08:55:39.199Z,10.80
2022-11-04T08:57:12.148Z,10.90
2022-11-04T08:58:45.160Z,10.90
2022-11-04T09:00:18.550Z,10.90
2022-11-04T09:01:52.790Z,10.90
2022-11-04T09:03:25.569Z,10.90
2022-11-04T09:04:58.349Z,10.90
2022-11-04T09:06:34.075Z,10.90
2022-11-04T09:08:06.882Z,10.90
2022-11-04T09:09:41.047Z,11.00
2022-11-04T09:11:16.124Z,11.00
2022-11-04T09:12:48.858Z,11.10
2022-11-04T09:14:23.658Z,11.10
2022-11-04T09:15:56.421Z,11.10
2022-11-04T09:17:30.511Z,11.10
2022-11-04T09:19:03.559Z,11.10
2022-11-04T09:20:38.381Z,11.20
2022-11-04T09:22:11.183Z,11.20
2022-11-04T09:23:43.873Z,11.20
2022-11-04T09:25:16.657Z,11.20
2022-11-04T09:26:49.379Z,11.20
2022-11-04T09:28:22.121Z,11.20
2022-11-04T09:29:54.838Z,11.20
2022-11-04T09:31:29.383Z,11.30
2022-11-04T09:33:04.211Z,11.30
2022-11-04T09:34:37.135Z,11.30
2022-11-04T09:36:11.302Z,11.30
2022-11-04T09:37:44.316Z,11.30
2022-11-04T09:39:17.285Z,11.40
2022-11-04T09:40:50.803Z,11.40
2022-11-04T09:42:42.350Z,11.40
2022-11-04T09:44:23.842Z,11.50
2022-11-04T09:45:58.596Z,11.60
2022-11-04T09:47:34.691Z,11.60
2022-11-04T09:49:12.898Z,11.80
2022-11-04T09:50:49.910Z,11.90
2022-11-04T09:52:26.276Z,12.10
2022-11-04T09:54:03.707Z,12.20
2022-11-04T09:55:53.653Z,12.30
2022-11-04T09:57:26.967Z,12.40
2022-11-04T09:58:59.864Z,12.50
2022-11-04T10:00:36.572Z,12.60
2022-11-04T10:02:36.883Z,12.60
2022-11-04T10:04:21.803Z,12.70
2022-11-04T10:06:07.129Z,12.70
2022-11-04T10:07:55.454Z,12.80
2022-11-04T10:09:41.349Z,12.80
2022-11-04T10:11:20.541Z,12.90
2022-11-04T10:13:05.364Z,12.90
2022-11-04T10:15:25.805Z,12.90
2022-11-04T10:17:10.597Z,12.90
2022-11-04T10:19:03.284Z,12.90
2022-11-04T10:20:49.136Z,12.90
2022-11-04T10:22:30.042Z,12.90
2022-11-04T10:24:17.011Z,12.90
2022-11-04T10:25:55.608Z,12.80
2022-11-04T10:27:31.623Z,12.80
2022-11-04T10:29:07.831Z,12.80
2022-11-04T10:30:43.278Z,12.70
2022-11-04T10:32:22.324Z,12.70
2022-11-04T10:33:59.846Z,12.70
2022-11-04T10:35:37.900Z,12.70
2022-11-04T10:37:13.208Z,12.70
2022-11-04T10:38:48.154Z,12.70
2022-11-04T10:40:26.234Z,12.70
2022-11-04T10:41:59.285Z,12.60
2022-11-04T10:43:34.127Z,12.60
2022-11-04T10:45:12.335Z,12.60
2022-11-04T10:46:55.094Z,12.60
2022-11-04T10:48:33.009Z,12.70
2022-11-04T10:50:29.978Z,12.70
2022-11-04T10:52:03.605Z,12.70
2022-11-04T10:53:38.071Z,12.80
2022-11-04T10:55:26.162Z,12.80
2022-11-04T10:56:59.095Z,12.80
2022-11-04T10:58:33.863Z,12.80
2022-11-04T11:00:07.865Z,12.80
2022-11-04T11:01:49.980Z,12.80
2022-11-04T11:03:32.546Z,12.80
2022-11-04T11:05:15.928Z,12.80
2022-11-04T11:06:51.410Z,12.90
2022-11-04T11:08:32.401Z,12.90
2022-11-04T11:10:07.640Z,12.90
2022-11-04T11:11:47.298Z,12.90
2022-11-04T11:13:27.027Z,12.90
2022-11-04T11:14:59.772Z,13.00
2022-11-04T11:16:32.633Z,13.00
2022-11-04T11:18:15.319Z,13.00
2022-11-04T11:19:54.333Z,13.00
2022-11-04T11:21:28.263Z,13.10
2022-11-04T11:23:04.840Z,13.10
2022-11-04T11:24:37.907Z,13.20
2022-11-04T11:26:15.202Z,13.20
2022-11-04T11:27:50.820Z,13.30
2022-11-04T11:29:26.798Z,13.40
2022-11-04T11:31:04.202Z,13.50
2022-11-04T11:32:43.144Z,13.50
2022-11-04T11:34:21.247Z,13.60
2022-11-04T11:35:55.890Z,13.60
2022-11-04T11:37:31.277Z,13.70
2022-11-04T11:39:07.221Z,13.70
2022-11-04T11:41:03.509Z,13.70
2022-11-04T11:42:42.700Z,13.80
2022-11-04T11:44:23.547Z,13.80
2022-11-04T11:45:57.548Z,13.70
2022-11-04T11:47:38.155Z,13.70
2022-11-04T11:49:25.603Z,13.60
2022-11-04T11:51:00.234Z,13.60
2022-11-04T11:52:34.560Z,13.50
2022-11-04T11:54:17.457Z,13.50
2022-11-04T11:55:55.068Z,13.50
2022-11-04T11:57:35.499Z,13.50
2022-11-04T12:01:22.350Z,13.50
2022-11-04T12:03:02.504Z,13.40
2022-11-04T12:10:52.050Z,13.10
2022-11-04T12:12:46.402Z,13.00
2022-11-04T12:14:30.780Z,13.00
2022-11-04T12:16:21.131Z,13.00
2022-11-04T12:18:12.297Z,13.00
2022-11-04T12:20:10.223Z,12.90
2022-11-04T12:21:49.818Z,12.90
2022-11-04T12:23:30.046Z,12.90
2022-11-04T12:25:10.747Z,12.80
2022-11-04T12:26:51.925Z,12.80
2022-11-04T12:28:30.910Z,12.80
2022-11-04T12:30:10.285Z,12.80
2022-11-04T12:31:53.073Z,12.70
2022-11-04T12:33:34.405Z,12.70
2022-11-04T12:35:19.917Z,12.70
2022-11-04T12:37:08.926Z,12.70
2022-11-04T12:38:55.238Z,12.70
2022-11-04T12:40:30.207Z,12.70
2022-11-04T12:42:20.913Z,12.70
2022-11-04T12:44:02.860Z,12.70
2022-11-04T12:45:47.366Z,12.80
2022-11-04T12:47:33.086Z,12.80
2022-11-04T12:49:33.306Z,12.80
2022-11-04T12:51:12.905Z,12.80
2022-11-04T12:53:34.098Z,12.80
2022-11-04T12:55:23.865Z,12.90
2022-11-04T12:57:06.823Z,12.90
2022-11-04T12:59:02.436Z,12.90
2022-11-04T13:00:38.931Z,12.90
2022-11-04T13:02:21.725Z,12.90
2022-11-04T13:03:59.251Z,12.90
2022-11-04T13:05:43.078Z,12.90
2022-11-04T13:07:22.499Z,12.90
2022-11-04T13:09:00.225Z,12.90
2022-11-04T13:10:41.338Z,12.90
2022-11-04T13:12:18.535Z,12.90
2022-11-04T13:14:03.169Z,12.80
2022-11-04T13:15:46.022Z,12.90
2022-11-04T13:17:22.961Z,12.80
2022-11-04T13:18:57.646Z,12.80
2022-11-04T13:20:36.880Z,12.90
2022-11-04T13:22:12.865Z,12.90
2022-11-04T13:23:52.948Z,12.90
2022-11-04T13:25:31.191Z,12.90
2022-11-04T13:27:14.117Z,12.80
2022-11-04T13:28:56.126Z,12.90
2022-11-04T13:30:35.098Z,12.80
2022-11-04T13:32:17.334Z,12.80
2022-11-04T13:33:56.082Z,12.80
2022-11-04T13:35:34.271Z,12.80
2022-11-04T13:37:15.380Z,12.80
2022-11-04T13:38:53.550Z,12.80
2022-11-04T13:40:29.202Z,12.90
2022-11-04T13:42:29.742Z,12.90
2022-11-04T13:44:06.120Z,12.90
2022-11-04T13:45:47.822Z,13.00
2022-11-04T13:47:25.641Z,13.00
2022-11-04T13:49:02.880Z,13.00
2022-11-04T13:50:37.789Z,13.00
2022-11-04T13:52:13.330Z,13.00
2022-11-04T13:53:49.335Z,13.00
2022-11-04T13:55:22.430Z,13.00
2022-11-04T13:57:06.582Z,13.00
2022-11-04T13:58:45.952Z,13.00
2022-11-04T14:00:25.364Z,13.00
2022-11-04T14:02:37.722Z,13.00
2022-11-04T14:04:30.423Z,13.00
2022-11-04T14:06:06.732Z,13.10
2022-11-04T14:08:09.158Z,13.00
2022-11-04T14:10:00.595Z,13.00
2022-11-04T14:12:13.183Z,13.00
2022-11-04T14:14:02.249Z,13.00
2022-11-04T14:16:00.687Z,13.00
2022-11-04T14:18:01.993Z,13.00
2022-11-04T14:19:59.058Z,13.00
2022-11-04T14:22:07.633Z,13.00
2022-11-04T14:23:43.036Z,13.00
2022-11-04T14:25:26.741Z,13.00
2022-11-04T14:27:00.098Z,13.00
2022-11-04T14:28:34.389Z,13.00
2022-11-04T14:30:28.333Z,13.00
2022-11-04T14:32:01.564Z,13.00
2022-11-04T14:33:39.211Z,12.90
2022-11-04T14:35:19.314Z,13.00
2022-11-04T14:36:57.122Z,13.00
2022-11-04T14:38:32.558Z,13.00
2022-11-04T14:40:08.124Z,13.00
2022-11-04T14:42:01.754Z,13.00
2022-11-04T14:43:35.931Z,13.00
2022-11-04T14:45:13.173Z,13.00
2022-11-04T14:46:48.493Z,13.00
2022-11-04T14:48:21.850Z,12.90
2022-11-04T14:50:03.572Z,13.00
2022-11-04T14:51:42.044Z,12.90
2022-11-04T14:53:20.370Z,13.00
2022-11-04T14:54:58.054Z,13.00
2022-11-04T14:56:30.830Z,13.00
2022-11-04T14:58:23.715Z,13.00
2022-11-04T14:59:56.714Z,13.00
2022-11-04T15:01:35.271Z,13.00
2022-11-04T15:03:57.518Z,12.90
2022-11-04T15:05:24.434Z,12.90
2022-11-04T15:06:58.857Z,12.90
2022-11-04T15:08:35.127Z,12.90
2022-11-04T15:10:21.582Z,12.90
2022-11-04T15:12:20.673Z,12.90
2022-11-04T15:13:59.923Z,12.90
2022-11-04T15:15:36.097Z,12.90
2022-11-04T15:17:20.597Z,12.90
2022-11-04T15:18:54.612Z,12.90
2022-11-04T15:20:31.094Z,12.90
2022-11-04T15:22:05.827Z,12.90
2022-11-04T15:23:42.274Z,12.90
2022-11-04T15:25:15.100Z,12.90
2022-11-04T15:26:51.634Z,12.90
2022-11-04T15:28:28.059Z,12.90
2022-11-04T15:30:02.628Z,12.90
2022-11-04T15:31:36.715Z,12.90
2022-11-04T15:33:18.221Z,12.90
2022-11-04T15:34:51.702Z,12.90
2022-11-04T15:36:27.766Z,12.90
2022-11-04T15:38:03.658Z,12.90
2022-11-04T15:39:43.374Z,12.90
2022-11-04T15:41:38.550Z,12.90
2022-11-04T15:43:12.139Z,12.90
2022-11-04T15:44:49.642Z,12.80
2022-11-04T15:46:23.555Z,12.80
2022-11-04T15:48:33.632Z,12.80
2022-11-04T15:50:25.176Z,12.80
2022-11-04T15:52:01.876Z,12.80
2022-11-04T15:53:38.752Z,12.80
2022-11-04T15:55:22.072Z,12.80
2022-11-04T15:56:56.078Z,12.70
2022-11-04T15:58:28.983Z,12.70
2022-11-04T16:00:06.475Z,12.70
2022-11-04T16:01:46.602Z,12.70
2022-11-04T16:03:20.910Z,12.70
2022-11-04T16:05:06.420Z,12.70
2022-11-04T16:06:41.003Z,12.70
2022-11-04T16:08:21.331Z,12.70
2022-11-04T16:09:55.718Z,12.70
2022-11-04T16:11:28.629Z,12.70
2022-11-04T16:13:02.943Z,12.70
2022-11-04T16:14:35.973Z,12.60
2022-11-04T16:16:20.210Z,12.70
2022-11-04T16:17:53.186Z,12.70
2022-11-04T16:19:28.783Z,12.60
2022-11-04T16:21:06.199Z,12.70
2022-11-04T16:22:40.638Z,12.70
2022-11-04T16:24:18.824Z,12.70
2022-11-04T16:25:59.161Z,12.70
2022-11-04T16:27:35.432Z,12.70
2022-11-04T16:29:10.546Z,12.70
2022-11-04T16:30:57.275Z,12.70
2022-11-04T16:32:31.852Z,12.60
2022-11-04T16:34:07.003Z,12.60
2022-11-04T16:35:42.704Z,12.60
2022-11-04T16:37:16.880Z,12.60
2022-11-04T16:38:53.447Z,12.60
2022-11-04T16:40:26.545Z,12.60
2022-11-04T16:41:59.775Z,12.60
2022-11-04T16:43:32.877Z,12.60
2022-11-04T16:45:09.906Z,12.60
2022-11-04T16:46:42.783Z,12.60
2022-11-04T16:48:17.658Z,12.60
2022-11-04T16:49:50.450Z,12.60
2022-11-04T16:51:24.468Z,12.50
2022-11-04T16:52:59.205Z,12.50
2022-11-04T16:54:31.935Z,12.50
2022-11-04T16:56:04.836Z,12.50
2022-11-04T16:57:37.642Z,12.50
2022-11-04T16:59:11.437Z,12.50
2022-11-04T17:00:44.234Z,12.60
2022-11-04T17:02:24.352Z,12.50
2022-11-04T17:03:57.238Z,12.50
2022-11-04T17:05:30.019Z,12.50
2022-11-04T17:07:03.427Z,12.50
2022-11-04T17:08:38.116Z,12.50
2022-11-04T17:10:16.147Z,12.50
2022-11-04T17:11:49.339Z,12.50
2022-11-04T17:13:22.078Z,12.60
2022-11-04T17:14:54.841Z,12.50
2022-11-04T17:16:27.576Z,12.50
2022-11-04T17:18:00.373Z,12.50
2022-11-04T17:19:34.894Z,12.50
2022-11-04T17:21:09.881Z,12.50
2022-11-04T17:22:43.136Z,12.50
2022-11-04T17:24:17.235Z,12.50
2022-11-04T17:25:50.158Z,12.50
2022-11-04T17:27:22.889Z,12.40
2022-11-04T17:28:55.659Z,12.40
2022-11-04T17:30:28.381Z,12.40
2022-11-04T17:32:01.107Z,12.40
2022-11-04T17:33:33.848Z,12.40
2022-11-04T17:35:07.273Z,12.50
2022-11-04T17:36:40.034Z,12.40
2022-11-04T17:38:13.365Z,12.40
2022-11-04T17:39:47.409Z,12.40
2022-11-04T17:41:37.765Z,12.40
2022-11-04T17:43:28.340Z,12.40
2022-11-04T17:45:01.066Z,12.40
2022-11-04T17:46:34.443Z,12.40
2022-11-04T17:48:07.412Z,12.40
2022-11-04T17:49:41.436Z,12.40
2022-11-04T17:51:14.177Z,12.40
2022-11-04T17:52:49.129Z,12.40
2022-11-04T17:54:23.014Z,12.40
2022-11-04T17:55:57.106Z,12.30
2022-11-04T17:57:29.855Z,12.30
2022-11-04T17:59:03.898Z,12.40
2022-11-04T18:00:36.704Z,12.30
2022-11-04T18:02:09.698Z,12.30
2022-11-04T18:03:43.383Z,12.30
2022-11-04T18:05:16.351Z,12.30
2022-11-04T18:06:50.117Z,12.20
2022-11-04T18:08:22.846Z,12.20
2022-11-04T18:09:56.315Z,12.30
2022-11-04T18:11:48.709Z,12.30
2022-11-04T18:13:21.455Z,12.30
2022-11-04T18:14:54.182Z,12.20
2022-11-04T18:16:27.131Z,12.20
2022-11-04T18:17:59.866Z,12.30
2022-11-04T18:19:33.166Z,12.20
2022-11-04T18:21:08.151Z,12.30
2022-11-04T18:22:40.909Z,12.20
2022-11-04T18:24:14.135Z,12.20
2022-11-04T18:25:50.709Z,12.30
2022-11-04T18:27:24.995Z,12.30
2022-11-04T18:28:57.973Z,12.20
2022-11-04T18:30:30.709Z,12.20
2022-11-04T18:32:03.434Z,12.20
2022-11-04T18:33:36.318Z,12.30
2022-11-04T18:35:09.342Z,12.20
2022-11-04T18:36:42.546Z,12.20
2022-11-04T18:38:15.275Z,12.20
2022-11-04T18:39:48.015Z,12.20
2022-11-04T18:41:21.384Z,12.20
2022-11-04T18:42:56.255Z,12.20
2022-11-04T18:44:28.976Z,12.20
2022-11-04T18:46:07.923Z,12.20
2022-11-04T18:47:40.664Z,12.30
2022-11-04T18:49:14.217Z,12.20
2022-11-04T18:50:48.197Z,12.20
2022-11-04T18:52:21.065Z,12.20
2022-11-04T18:53:53.842Z,12.20
2022-11-04T18:55:26.602Z,12.20
2022-11-04T18:56:59.342Z,12.20
2022-11-04T18:58:34.806Z,12.20
2022-11-04T19:00:12.904Z,12.20
2022-11-04T19:01:51.174Z,12.20
2022-11-04T19:03:24.041Z,12.20
2022-11-04T19:04:56.775Z,12.20
2022-11-04T19:06:31.583Z,12.20
2022-11-04T19:08:04.306Z,12.20
2022-11-04T19:09:52.502Z,12.20
2022-11-04T19:11:28.229Z,12.20
2022-11-04T19:13:18.349Z,12.20
2022-11-04T19:14:53.380Z,12.20
2022-11-04T19:16:27.244Z,12.20
2022-11-04T19:17:59.969Z,12.20
2022-11-04T19:19:32.714Z,12.20
2022-11-04T19:21:07.460Z,12.20
2022-11-04T19:22:41.115Z,12.10
2022-11-04T19:24:13.832Z,12.10
2022-11-04T19:25:46.561Z,12.10
2022-11-04T19:27:21.490Z,12.10
2022-11-04T19:28:54.858Z,12.10
2022-11-04T19:30:29.871Z,12.10
2022-11-04T19:32:02.608Z,12.10
2022-11-04T19:33:35.706Z,12.10
2022-11-04T19:35:08.722Z,12.10
2022-11-04T19:36:41.438Z,12.00
2022-11-04T19:38:14.171Z,12.00
2022-11-04T19:39:46.893Z,12.00
2022-11-04T19:41:37.426Z,12.00
2022-11-04T19:43:10.208Z,12.00
2022-11-04T19:44:42.978Z,12.00
2022-11-04T19:46:17.117Z,12.00
2022-11-04T19:47:49.860Z,12.00
2022-11-04T19:49:22.929Z,12.00
2022-11-04T19:50:55.904Z,12.00
2022-11-04T19:52:28.633Z,11.90
2022-11-04T19:54:02.225Z,11.90
2022-11-04T19:55:35.603Z,11.90
2022-11-04T19:57:08.375Z,11.90
2022-11-04T19:58:41.114Z,11.90
2022-11-04T20:00:14.475Z,11.80
2022-11-04T20:01:48.835Z,11.90
2022-11-04T20:03:21.671Z,11.90
2022-11-04T20:04:54.759Z,11.80
2022-11-04T20:06:28.237Z,11.80
2022-11-04T20:08:05.917Z,11.80
2022-11-04T20:09:39.560Z,11.70
2022-11-04T20:11:14.085Z,11.70
2022-11-04T20:13:04.172Z,11.70
2022-11-04T20:14:35.952Z,11.70
2022-11-04T20:16:14.678Z,11.70
2022-11-04T20:17:49.048Z,11.70
2022-11-04T20:19:23.102Z,11.70
2022-11-04T20:20:56.291Z,11.70
2022-11-04T20:22:29.052Z,11.70
2022-11-04T20:24:03.958Z,11.70
2022-11-04T20:25:36.708Z,11.70
2022-11-04T20:27:10.560Z,11.70
2022-11-04T20:28:44.266Z,11.70
2022-11-04T20:30:17.057Z,11.60
2022-11-04T20:31:49.821Z,11.60
2022-11-04T20:33:23.995Z,11.60
2022-11-04T20:34:56.715Z,11.60
2022-11-04T20:36:30.287Z,11.60
2022-11-04T20:38:03.051Z,11.60
2022-11-04T20:39:35.990Z,11.60
2022-11-04T20:41:10.815Z,11.60
2022-11-04T20:42:47.607Z,11.60
2022-11-04T20:44:20.622Z,11.60
2022-11-04T20:45:53.440Z,11.60
2022-11-04T20:47:26.249Z,11.60
2022-11-04T20:49:00.344Z,11.60
2022-11-04T20:50:33.822Z,11.60
2022-11-04T20:52:06.640Z,11.60
2022-11-04T20:53:39.815Z,11.60
2022-11-04T20:55:12.969Z,11.60
2022-11-04T20:56:45.849Z,11.60
2022-11-04T20:58:18.606Z,11.60
2022-11-04T20:59:53.108Z,11.50
2022-11-04T21:01:27.893Z,11.50
2022-11-04T21:03:00.780Z,11.50
2022-11-04T21:04:36.313Z,11.50
2022-11-04T21:06:10.825Z,11.50
2022-11-04T21:07:43.596Z,11.50
2022-11-04T21:09:17.736Z,11.50